createdAt,value
2023-05-05T00:03:19.624Z,6.20
2023-05-05T00:13:24.020Z,11.15
2023-05-05T00:23:26.646Z,6.20
2023-05-05T00:33:30.598Z,8.63
2023-05-05T00:43:33.316Z,9.02
2023-05-05T00:53:39.612Z,8.32
2023-05-05T01:03:42.672Z,7.88
2023-05-05T01:13:58.007Z,12.27
2023-05-05T01:24:12.286Z,17.42
2023-05-05T01:34:20.201Z,12.05
2023-05-05T01:44:22.962Z,9.52
2023-05-05T01:54:28.089Z,6.20
2023-05-05T02:04:33.065Z,8.45
2023-05-05T02:14:40.087Z,11.32
2023-05-05T02:24:42.988Z,7.32
2023-05-05T02:34:50.612Z,9.75
2023-05-05T02:44:56.259Z,8.23
2023-05-05T02:55:01.178Z,11.32
2023-05-05T03:05:10.693Z,5.97
2023-05-05T03:15:15.238Z,7.32
2023-05-05T03:25:17.896Z,7.65
2023-05-05T03:35:22.978Z,11.07
2023-05-05T03:45:25.797Z,6.35
2023-05-05T03:55:29.809Z,6.28
2023-05-05T04:05:32.508Z,8.50
2023-05-05T04:15:36.670Z,8.85
2023-05-05T04:25:39.738Z,10.23
2023-05-05T04:35:43.727Z,10.95
2023-05-05T04:45:53.469Z,11.15
2023-05-05T04:55:57.458Z,12.77
2023-05-05T05:06:00.325Z,7.40
2023-05-05T05:16:04.421Z,7.75
2023-05-05T05:26:07.239Z,9.20
2023-05-05T05:36:11.304Z,7.07
2023-05-05T05:46:13.964Z,8.20
2023-05-05T05:56:17.913Z,6.05
2023-05-05T06:06:20.577Z,11.50
2023-05-05T06:16:24.724Z,10.60
2023-05-05T06:26:27.464Z,10.27
2023-05-05T06:36:32.214Z,16.27
2023-05-05T06:46:34.998Z,7.32
2023-05-05T06:56:39.034Z,17.63
2023-05-05T07:06:41.677Z,11.20
2023-05-05T07:16:46.367Z,11.63
2023-05-05T07:26:49.034Z,9.40
2023-05-05T07:36:53.030Z,12.63
2023-05-05T07:46:55.961Z,12.80
2023-05-05T07:56:59.993Z,8.70
2023-05-05T08:07:02.715Z,11.10
2023-05-05T08:17:06.974Z,10.07
2023-05-05T08:27:09.586Z,10.55
2023-05-05T08:37:13.565Z,10.75
2023-05-05T08:47:16.864Z,8.23
2023-05-05T08:57:26.712Z,12.30
2023-05-05T09:07:29.366Z,11.77
2023-05-05T09:17:33.319Z,16.10
2023-05-05T09:27:40.713Z,10.57
2023-05-05T09:37:45.016Z,13.32
2023-05-05T09:47:48.474Z,16.42
2023-05-05T09:57:52.901Z,13.63
2023-05-05T10:07:55.593Z,10.45
2023-05-05T10:18:07.834Z,13.13
2023-05-05T10:28:17.091Z,13.13
2023-05-05T10:38:24.798Z,11.63
2023-05-05T10:48:35.453Z,12.90
2023-05-05T10:58:58.331Z,13.77
2023-05-05T11:09:29.992Z,17.75
2023-05-05T11:19:48.642Z,14.27
2023-05-05T11:40:21.756Z,11.98
2023-05-05T11:50:27.085Z,12.25
2023-05-05T12:00:33.567Z,13.52
2023-05-05T12:10:37.648Z,13.38
2023-05-05T12:20:41.669Z,13.60
2023-05-05T12:30:57.470Z,22.30
2023-05-05T12:41:00.147Z,21.80
2023-05-05T12:51:16.027Z,14.80
2023-05-05T13:01:18.699Z,16.35
2023-05-05T13:11:22.760Z,14.15
2023-05-05T13:21:26.032Z,15.70
2023-05-05T13:31:30.623Z,15.77
2023-05-05T13:41:33.321Z,19.48
2023-05-05T13:51:38.319Z,13.60
2023-05-05T14:01:41.115Z,12.48
2023-05-05T14:11:45.074Z,15.73
2023-05-05T14:21:47.813Z,18.35
2023-05-05T14:31:52.152Z,16.77
2023-05-05T14:41:54.798Z,21.75
2023-05-05T14:51:58.949Z,18.48
2023-05-05T15:02:01.845Z,26.58
2023-05-05T15:12:06.578Z,22.67
2023-05-05T15:22:09.308Z,6.38
2023-05-05T15:32:13.305Z,11.70
2023-05-05T15:42:16.058Z,3.65
2023-05-05T15:52:20.337Z,6.63
2023-05-05T16:02:23.179Z,16.67
2023-05-05T16:12:27.377Z,6.25
2023-05-05T16:22:30.511Z,8.13
2023-05-05T16:32:34.877Z,6.85
2023-05-05T16:42:37.736Z,8.75
2023-05-05T16:52:42.017Z,10.73
2023-05-05T17:02:44.641Z,7.85
2023-05-05T17:12:48.676Z,5.25
2023-05-05T17:22:51.503Z,5.00
2023-05-05T17:32:55.829Z,6.20
2023-05-05T17:42:58.602Z,4.90
2023-05-05T17:53:02.588Z,4.68
2023-05-05T18:03:05.830Z,4.28
2023-05-05T18:13:09.883Z,3.58
2023-05-05T18:23:12.770Z,2.97
2023-05-05T18:33:16.782Z,3.22
2023-05-05T18:43:19.427Z,3.25
2023-05-05T18:53:23.356Z,2.70
2023-05-05T19:03:26.045Z,3.83
2023-05-05T19:13:30.021Z,5.60
2023-05-05T19:23:33.181Z,4.93
2023-05-05T19:33:37.351Z,5.38
2023-05-05T19:43:40.242Z,4.85
2023-05-05T19:53:45.717Z,4.32
2023-05-05T20:03:48.480Z,6.30
2023-05-05T20:13:53.133Z,5.57
2023-05-05T20:23:55.836Z,7.25
2023-05-05T20:33:59.780Z,5.55
2023-05-05T20:44:03.613Z,9.70
2023-05-05T20:54:07.638Z,7.80
2023-05-05T21:04:10.337Z,5.78
2023-05-05T21:14:14.499Z,6.82
2023-05-05T21:24:17.329Z,7.00
2023-05-05T21:34:21.279Z,6.80
2023-05-05T21:44:25.408Z,6.90
2023-05-05T21:54:30.083Z,6.32
2023-05-05T22:04:32.740Z,7.13
2023-05-05T22:14:36.801Z,9.90
2023-05-05T22:24:39.404Z,12.63
2023-05-05T22:34:43.434Z,21.70
2023-05-05T22:44:46.093Z,23.63
2023-05-05T22:54:50.021Z,25.10
2023-05-05T23:04:52.701Z,24.77
2023-05-05T23:14:56.747Z,27.90
2023-05-05T23:24:59.336Z,31.70
2023-05-05T23:35:03.315Z,33.67
2023-05-05T23:45:06.669Z,35.95
2023-05-05T23:55:11.436Z,36.83
